Time;durP1;ratioP1;P1;durP2;ratioP2;P2;SDS_P1;SDS_P2;PMS_P1;PMS_P2;Temp;Humidity;BMP_temperature;BMP_pressure;BME280_temperature;BME280_humidity;BME280_pressure;Samples;Min_cycle;Max_cycle;Signal;HPM_P1;HPM_P2
2023/09/08 00:02:03;;;;;;;6.53;2.17;;;;;;;13.69;63.21;99964.53;5001209;28;20524;-92
2023/09/08 00:05:01;;;;;;;3.55;1.90;;;;;;;13.92;63.18;99974.31;5002103;28;20065;-91
2023/09/08 00:07:43;;;;;;;4.10;2.00;;;;;;;13.73;61.21;99949.03;4984770;28;20070;-90
2023/09/08 00:10:34;;;;;;;3.28;1.90;;;;;;;13.93;61.55;99973.16;4980217;28;20133;-93
2023/09/08 00:13:06;;;;;;;6.63;2.40;;;;;;;13.82;60.88;99953.44;4948724;28;20072;-92
2023/09/08 00:15:55;;;;;;;3.67;2.15;;;;;;;13.71;61.48;99943.88;4932600;28;20065;-93
2023/09/08 00:18:21;;;;;;;3.92;1.90;;;;;;;13.63;61.73;99926.19;4950334;28;20038;-94
2023/09/08 00:20:47;;;;;;;4.60;2.28;;;;;;;13.74;61.31;99935.00;4986162;28;20039;-95
2023/09/08 00:23:13;;;;;;;4.68;2.40;;;;;;;13.59;61.95;99919.72;4930891;28;20049;-93
2023/09/08 00:25:55;;;;;;;6.45;2.28;;;;;;;13.35;62.39;99875.41;4969272;28;20487;-93
2023/09/08 00:28:21;;;;;;;5.13;2.38;;;;;;;13.43;62.25;99887.53;4969939;23;20053;-92
2023/09/08 00:30:50;;;;;;;4.85;2.30;;;;;;;13.59;62.22;99907.94;4943994;29;20043;-95
2023/09/08 00:33:16;;;;;;;5.10;2.28;;;;;;;13.55;60.94;99907.78;4955094;28;20034;-92
2023/09/08 00:36:15;;;;;;;6.30;2.58;;;;;;;13.93;61.40;99964.94;4980287;28;20051;-92
2023/09/08 00:41:33;;;;;;;4.05;2.33;;;;;;;13.54;62.13;99910.81;4981285;28;20019;-90
2023/09/08 00:48:25;;;;;;;9.90;2.40;;;;;;;13.91;61.07;99953.47;4968554;28;20039;-92
2023/09/08 00:50:56;;;;;;;4.40;2.10;;;;;;;13.70;61.78;99914.75;4918475;29;20146;-93
2023/09/08 00:53:23;;;;;;;5.65;2.42;;;;;;;13.65;61.48;99919.59;4939884;29;20079;-92
2023/09/08 00:55:54;;;;;;;3.70;2.13;;;;;;;13.38;61.98;99875.56;4920895;29;20079;-92
2023/09/08 00:58:20;;;;;;;4.80;2.30;;;;;;;13.44;61.48;99880.91;4924418;29;20111;-90
2023/09/08 01:00:46;;;;;;;3.33;2.20;;;;;;;13.68;61.30;99921.72;4943818;29;20039;-90
2023/09/08 01:04:07;;;;;;;4.82;2.35;;;;;;;13.74;61.54;99956.13;4924351;29;20046;-94
2023/09/08 01:06:50;;;;;;;;;;;;;;;;;;;;;
2023/09/08 01:09:54;;;;;;;3.67;2.13;;;;;;;13.25;61.50;99871.00;4942293;29;20047;-93
2023/09/08 01:12:20;;;;;;;3.45;1.90;;;;;;;13.36;61.38;99888.78;4922826;29;20129;-90
2023/09/08 01:14:46;;;;;;;6.88;2.20;;;;;;;13.35;62.61;99886.38;4929137;29;20408;-89
2023/09/08 01:17:22;;;;;;;4.13;2.30;;;;;;;13.52;61.52;99913.91;4946897;29;20086;-95
2023/09/08 01:23:29;;;;;;;6.15;2.38;;;;;;;13.66;62.18;99943.19;4943555;29;20572;-94
2023/09/08 01:26:04;;;;;;;5.75;2.00;;;;;;;13.42;63.31;99918.88;4927130;29;20083;-91
2023/09/08 01:28:32;;;;;;;7.07;2.42;;;;;;;13.39;63.71;99920.31;4913159;29;20046;-95
2023/09/08 01:31:08;;;;;;;5.28;2.40;;;;;;;13.07;63.92;99892.03;4932038;28;20031;-92
2023/09/08 01:33:35;;;;;;;4.43;2.20;;;;;;;13.07;64.35;99888.47;4939943;29;20038;-94
2023/09/08 01:36:15;;;;;;;5.60;2.40;;;;;;;13.07;63.97;99882.97;4944909;29;20058;-94
2023/09/08 01:38:44;;;;;;;4.85;2.20;;;;;;;13.04;64.24;99881.66;4943769;29;20043;-95
2023/09/08 01:41:11;;;;;;;4.88;2.40;;;;;;;13.23;64.38;99899.84;4944789;28;20058;-92
2023/09/08 01:43:45;;;;;;;6.03;2.22;;;;;;;13.21;64.24;99904.84;4928924;29;20094;-94
2023/09/08 01:46:11;;;;;;;3.65;2.15;;;;;;;13.04;63.79;99875.38;4942873;29;20077;-91
2023/09/08 01:48:44;;;;;;;3.45;2.28;;;;;;;12.76;63.99;99833.59;4959785;23;20055;-91
2023/09/08 01:51:10;;;;;;;9.82;2.70;;;;;;;13.07;64.17;99875.56;4979556;28;20050;-92
2023/09/08 01:53:37;;;;;;;5.67;2.13;;;;;;;13.26;63.99;99900.06;4900069;29;20048;-91
2023/09/08 01:57:00;;;;;;;11.45;2.72;;;;;;;13.44;63.68;99917.41;4906271;29;20048;-91
2023/09/08 01:59:26;;;;;;;10.05;2.33;;;;;;;13.30;64.00;99892.00;4904143;29;20545;-92
2023/09/08 02:01:51;;;;;;;7.28;2.63;;;;;;;13.25;63.29;99881.97;4903531;29;20040;-92
2023/09/08 02:04:58;;;;;;;4.13;2.05;;;;;;;13.36;64.75;99910.75;4909919;23;20070;-92
2023/09/08 02:07:24;;;;;;;4.65;2.17;;;;;;;13.12;65.11;99877.38;4934261;28;20043;-93
2023/09/08 02:10:26;;;;;;;;;;;;;;;13.28;65.34;99914.28;4960249;28;20053;-91
2023/09/08 02:12:52;;;;;;;6.93;2.42;;;;;;;13.10;66.36;99891.38;4966122;28;20036;-91
2023/09/08 02:15:24;;;;;;;4.70;2.25;;;;;;;13.09;67.07;99884.28;4976186;23;20109;-89
2023/09/08 02:17:54;;;;;;;6.10;2.15;;;;;;;13.17;66.65;99883.50;4930931;28;20389;-94
2023/09/08 02:20:51;;;;;;;5.60;2.15;;;;;;;13.26;66.07;99913.78;4951929;28;20042;-93
2023/09/08 02:23:17;;;;;;;3.45;2.15;;;;;;;12.79;66.98;99836.53;4903803;29;20052;-90
2023/09/08 02:27:06;;;;;;;6.90;1.98;;;;;;;13.15;66.23;99909.69;4921510;29;20040;-92
2023/09/08 02:29:32;;;;;;;7.97;2.22;;;;;;;12.87;68.29;99873.34;4888486;29;20060;-91
2023/09/08 02:32:02;;;;;;;5.20;2.30;;;;;;;13.02;67.63;99894.13;4889896;29;20051;-93
2023/09/08 02:34:29;;;;;;;4.05;2.00;;;;;;;12.59;69.03;99848.84;4887800;29;20111;-92
2023/09/08 02:37:45;;;;;;;4.20;2.10;;;;;;;12.91;69.50;99880.66;4901788;29;20410;-95
2023/09/08 02:40:13;;;;;;;8.73;2.38;;;;;;;12.73;69.52;99846.00;4903724;29;20125;-93
2023/09/08 02:42:39;;;;;;;4.90;2.38;;;;;;;12.87;68.45;99871.41;4872480;29;20744;-92
2023/09/08 02:45:39;;;;;;;4.40;2.00;;;;;;;12.79;68.92;99846.69;4872605;29;20550;-93
2023/09/08 02:48:07;;;;;;;5.03;2.00;;;;;;;12.74;70.65;99824.88;4853136;29;20540;-90
2023/09/08 02:51:06;;;;;;;2.85;1.80;;;;;;;13.17;69.99;99869.78;4865551;29;20460;-94
2023/09/08 02:53:34;;;;;;;4.53;1.95;;;;;;;13.14;69.08;99869.59;4834732;29;20201;-90
2023/09/08 02:56:05;;;;;;;9.48;2.30;;;;;;;12.74;70.64;99811.16;4851300;29;20646;-91
2023/09/08 02:58:34;;;;;;;5.38;2.20;;;;;;;12.73;70.46;99820.50;4848568;29;20110;-92
2023/09/08 03:01:14;;;;;;;4.68;1.88;;;;;;;12.58;70.77;99810.72;4848758;29;20050;-93
2023/09/08 03:03:41;;;;;;;4.35;2.20;;;;;;;12.80;70.69;99846.38;4865813;29;20046;-95
2023/09/08 03:06:31;;;;;;;5.60;2.17;;;;;;;12.70;71.09;99819.19;4851232;29;20053;-94
2023/09/08 03:08:58;;;;;;;3.47;2.10;;;;;;;12.83;70.29;99837.50;4842135;29;20042;-90
2023/09/08 03:11:25;;;;;;;9.60;2.05;;;;;;;12.80;70.70;99832.66;4834466;29;20049;-95
2023/09/08 03:13:51;;;;;;;4.30;2.03;;;;;;;12.44;71.01;99775.97;4866608;29;20049;-93
2023/09/08 03:16:18;;;;;;;4.13;2.08;;;;;;;12.82;70.39;99824.91;4902818;23;20051;-93
2023/09/08 03:18:49;;;;;;;4.60;2.30;;;;;;;12.73;70.37;99807.59;4951954;28;20047;-93
2023/09/08 03:21:22;;;;;;;3.92;2.25;;;;;;;13.02;69.78;99861.19;4929107;29;20633;-95
2023/09/08 03:23:48;;;;;;;4.97;2.35;;;;;;;12.72;70.24;99802.44;4951035;28;20046;-94
2023/09/08 03:26:14;;;;;;;4.68;2.40;;;;;;;12.70;69.51;99810.97;4952522;28;20042;-94
2023/09/08 03:28:42;;;;;;;4.75;2.20;;;;;;;12.60;69.09;99779.13;4959777;28;20039;-93
2023/09/08 03:31:09;;;;;;;3.22;2.13;;;;;;;12.83;69.00;99823.78;4982252;28;20206;-91
2023/09/08 03:33:37;;;;;;;5.57;2.33;;;;;;;12.91;70.53;99824.94;4988972;23;20041;-93
2023/09/08 03:36:06;;;;;;;7.65;2.13;;;;;;;13.00;70.30;99847.75;4950898;28;20049;-88
2023/09/08 03:38:33;;;;;;;4.43;2.00;;;;;;;12.67;68.84;99778.69;4946949;28;20057;-92
2023/09/08 03:41:27;;;;;;;3.33;2.25;;;;;;;13.29;68.90;99839.03;4961903;28;20035;-89
2023/09/08 03:44:08;;;;;;;3.83;2.10;;;;;;;13.30;68.80;99846.13;4964093;28;20105;-95
2023/09/08 03:47:10;;;;;;;7.82;1.98;;;;;;;12.68;68.10;99759.19;4960717;28;20038;-90
2023/09/08 03:49:46;;;;;;;10.52;2.35;;;;;;;12.93;68.75;99795.25;4917407;29;20082;-94
2023/09/08 03:52:34;;;;;;;4.25;2.03;;;;;;;12.81;69.03;99764.84;4982148;23;20066;-92
2023/09/08 03:55:03;;;;;;;5.78;2.10;;;;;;;13.01;67.63;99807.38;4964346;29;20043;-93
2023/09/08 03:57:40;;;;;;;5.30;2.10;;;;;;;13.13;68.73;99810.34;4933636;29;20070;-94
2023/09/08 04:00:08;;;;;;;7.97;1.95;;;;;;;13.24;68.00;99805.38;4947641;29;20043;-94
2023/09/08 04:06:01;;;;;;;8.93;2.15;;;;;;;13.10;67.55;99778.84;4907888;29;20058;-93
2023/09/08 04:11:45;;;;;;;3.53;2.05;;;;;;;13.45;67.52;99828.41;4963259;28;20047;-95
2023/09/08 04:14:11;;;;;;;4.28;2.05;;;;;;;13.53;67.46;99821.31;4935822;28;20131;-91
2023/09/08 04:25:31;;;;;;;2.40;1.80;;;;;;;13.53;65.51;99824.06;1117980;23;20329;-90
2023/09/08 04:27:59;;;;;;;4.72;2.58;;;;;;;13.16;66.19;99750.13;4961182;28;20066;-92
2023/09/08 04:30:55;;;;;;;2.88;2.05;;;;;;;13.27;65.77;99736.13;4950802;28;20038;-91
2023/09/08 04:33:41;;;;;;;4.60;2.15;;;;;;;13.51;65.19;99771.38;4969960;28;20045;-94
2023/09/08 04:36:30;;;;;;;;;;;;;;;13.89;63.81;99812.00;4934328;23;20078;-89
2023/09/08 04:39:21;;;;;;;7.15;2.15;;;;;;;13.40;64.45;99741.47;4961881;28;19976;-93
2023/09/08 04:42:53;;;;;;;5.88;2.22;;;;;;;13.85;63.80;99811.81;4929120;28;20040;-91
2023/09/08 04:45:27;;;;;;;4.38;1.85;;;;;;;13.34;62.99;99737.28;4950335;28;20041;-92
2023/09/08 04:47:59;;;;;;;3.55;2.08;;;;;;;13.58;63.62;99779.97;4951895;28;20038;-92
2023/09/08 04:50:36;;;;;;;12.30;2.53;;;;;;;13.89;63.74;99809.25;4978260;23;20101;-92
2023/09/08 04:53:33;;;;;;;3.33;2.00;;;;;;;13.98;63.15;99804.56;5096498;23;20066;-91
2023/09/08 04:56:15;;;;;;;5.13;1.90;;;;;;;13.73;62.83;99753.94;4968724;28;20078;-91
2023/09/08 04:58:42;;;;;;;9.43;2.30;;;;;;;14.01;62.08;99788.22;4954054;28;20034;-91
2023/09/08 05:01:37;;;;;;;4.95;1.90;;;;;;;14.06;62.69;99796.28;4960976;28;20049;-95
2023/09/08 05:04:05;;;;;;;5.80;2.00;;;;;;;13.71;62.25;99762.53;4970724;23;20058;-94
2023/09/08 05:06:32;;;;;;;3.95;1.90;;;;;;;13.76;61.65;99770.59;4973484;28;20043;-90
2023/09/08 05:09:01;;;;;;;10.50;2.20;;;;;;;13.37;62.22;99733.06;4965026;28;20046;-89
2023/09/08 05:11:29;;;;;;;6.60;2.25;;;;;;;13.90;62.96;99786.09;4952586;28;20046;-91
2023/09/08 05:13:55;;;;;;;7.20;2.33;;;;;;;13.79;62.20;99747.16;4951147;28;20137;-89
2023/09/08 05:20:16;;;;;;;4.38;2.20;;;;;;;14.10;61.85;99790.94;4957149;28;20030;-90
2023/09/08 05:23:49;;;;;;;11.20;2.73;;;;;;;14.06;61.06;99776.25;4942754;28;20042;-91
2023/09/08 05:27:16;;;;;;;5.05;2.50;;;;;;;14.04;62.37;99782.06;4974542;28;20062;-93
2023/09/08 05:29:43;;;;;;;5.40;1.70;;;;;;;13.95;62.50;99752.97;4975288;28;20129;-89
2023/09/08 05:32:21;;;;;;;4.63;2.40;;;;;;;14.19;61.46;99761.50;4956700;28;20034;-90
2023/09/08 05:35:38;;;;;;;14.13;2.43;;;;;;;14.40;60.38;99771.81;4968081;28;20129;-91
2023/09/08 05:38:25;;;;;;;9.10;2.15;;;;;;;13.76;60.95;99720.31;4896149;29;20049;-87
2023/09/08 05:40:55;;;;;;;;;;;;;;;14.17;61.53;99758.28;4874679;29;20135;-88
2023/09/08 05:43:21;;;;;;;3.38;1.70;;;;;;;14.35;59.54;99753.56;4900093;29;19923;-87
2023/09/08 05:45:47;;;;;;;2.03;1.58;;;;;;;13.85;60.22;99710.16;4865715;29;20056;-85
2023/09/08 05:48:14;;;;;;;2.30;1.63;;;;;;;13.82;60.91;99738.28;4851497;29;20527;-84
2023/09/08 05:50:40;;;;;;;2.42;1.77;;;;;;;13.81;61.20;99731.97;4856237;29;20296;-88
2023/09/08 05:53:07;;;;;;;5.45;2.15;;;;;;;13.67;60.97;99714.81;4869031;29;20053;-85
2023/09/08 05:55:33;;;;;;;3.17;1.95;;;;;;;13.94;61.37;99748.59;4883949;29;20044;-86
2023/09/08 05:57:59;;;;;;;2.83;1.90;;;;;;;13.89;60.38;99727.59;4873638;29;20036;-88
2023/09/08 06:00:26;;;;;;;4.10;1.67;;;;;;;13.94;60.42;99721.94;4863708;29;20048;-88
2023/09/08 06:02:53;;;;;;;7.63;2.35;;;;;;;13.89;59.30;99704.81;4884214;29;20056;-87
2023/09/08 06:05:21;;;;;;;7.78;2.03;;;;;;;14.15;59.92;99735.81;4890837;29;20756;-86
2023/09/08 06:07:48;;;;;;;5.05;2.13;;;;;;;14.06;59.98;99708.31;4869414;29;20064;-85
2023/09/08 06:10:15;;;;;;;5.70;2.10;;;;;;;14.25;59.24;99710.72;4880522;29;20045;-86
2023/09/08 06:12:43;;;;;;;5.70;2.10;;;;;;;14.45;60.18;99728.44;4865173;29;20107;-85
2023/09/08 06:15:09;;;;;;;5.97;2.33;;;;;;;14.09;57.56;99680.19;4919887;28;20065;-87
2023/09/08 06:17:35;;;;;;;7.13;2.20;;;;;;;14.40;58.02;99716.81;4977870;28;20137;-87
2023/09/08 06:20:04;;;;;;;3.53;1.88;;;;;;;14.30;58.49;99706.97;4973195;28;20039;-86
2023/09/08 06:22:31;;;;;;;7.47;2.00;;;;;;;14.05;58.53;99681.16;4963180;28;20035;-84
2023/09/08 06:24:59;;;;;;;;;;;;;;;14.36;58.25;99715.84;4964398;28;20043;-84
2023/09/08 06:27:29;;;;;;;4.65;1.88;;;;;;;14.50;58.57;99722.81;4969625;28;19929;-89
2023/09/08 06:29:59;;;;;;;6.93;2.43;;;;;;;14.50;57.61;99731.06;4978772;28;20058;-87
2023/09/08 06:32:30;;;;;;;16.10;2.65;;;;;;;14.60;57.06;99705.09;4955546;28;20348;-83
2023/09/08 06:34:56;;;;;;;5.37;2.20;;;;;;;14.46;57.07;99680.53;4982792;28;20066;-84
2023/09/08 06:37:22;;;;;;;10.88;3.22;;;;;;;14.61;57.00;99684.72;4983498;28;20086;-83
2023/09/08 06:39:50;;;;;;;8.50;2.83;;;;;;;14.60;57.41;99661.09;4980955;28;20072;-86
2023/09/08 06:42:18;;;;;;;18.38;3.95;;;;;;;14.78;56.87;99678.31;4976308;28;20066;-85
2023/09/08 06:44:51;;;;;;;12.18;2.58;;;;;;;14.93;55.15;99688.78;4981233;28;20054;-84
2023/09/08 06:47:18;;;;;;;15.57;2.70;;;;;;;14.96;55.99;99668.81;4996752;28;20097;-84
2023/09/08 06:49:48;;;;;;;16.27;3.42;;;;;;;14.95;53.81;99705.75;4959249;28;20034;-84
2023/09/08 06:52:17;;;;;;;21.60;3.25;;;;;;;15.00;55.18;99680.00;4987327;28;20046;-84
2023/09/08 06:54:45;;;;;;;27.10;2.72;;;;;;;15.08;54.96;99659.03;4941264;28;20046;-87
2023/09/08 06:57:12;;;;;;;13.60;2.65;;;;;;;15.22;55.29;99667.84;4972781;28;20050;-87
2023/09/08 06:59:39;;;;;;;4.97;2.08;;;;;;;15.11;54.81;99661.94;4974150;28;20434;-85
2023/09/08 07:02:07;;;;;;;7.87;2.27;;;;;;;15.14;56.33;99647.50;4962290;28;20042;-89
2023/09/08 07:04:33;;;;;;;10.68;2.35;;;;;;;15.16;55.42;99639.69;4974093;28;20305;-86
2023/09/08 07:07:06;;;;;;;9.73;2.20;;;;;;;15.18;53.98;99640.16;4975758;28;20077;-83
2023/09/08 07:09:35;;;;;;;9.18;2.08;;;;;;;15.21;54.12;99652.47;4973471;28;20050;-85
2023/09/08 07:12:04;;;;;;;8.43;2.08;;;;;;;15.33;54.99;99662.72;4991462;28;20082;-82
2023/09/08 07:14:33;;;;;;;7.65;2.08;;;;;;;15.21;53.64;99622.97;4973766;28;20076;-92
2023/09/08 07:16:59;;;;;;;4.22;1.75;;;;;;;15.11;53.73;99628.88;4989403;28;20043;-86
2023/09/08 07:19:26;;;;;;;4.23;1.73;;;;;;;15.03;53.25;99641.59;4987272;28;20039;-91
2023/09/08 07:21:54;;;;;;;8.35;2.22;;;;;;;14.90;53.63;99601.34;4975484;28;20039;-85
2023/09/08 07:24:21;;;;;;;3.08;1.73;;;;;;;15.27;53.96;99649.19;4947315;28;20043;-85
2023/09/08 07:26:47;;;;;;;3.50;1.77;;;;;;;15.28;53.34;99633.44;4949546;28;20043;-87
2023/09/08 07:29:13;;;;;;;4.85;1.95;;;;;;;15.22;52.65;99624.56;4942863;28;20380;-90
2023/09/08 07:31:40;;;;;;;6.63;2.28;;;;;;;15.37;52.13;99634.19;4975153;28;20042;-90
2023/09/08 07:34:10;;;;;;;11.27;2.97;;;;;;;15.41;53.11;99635.13;4945204;28;20125;-83
2023/09/08 07:36:37;;;;;;;8.15;2.35;;;;;;;15.41;53.46;99621.34;4996035;28;20500;-88
2023/09/08 07:39:03;;;;;;;3.83;1.83;;;;;;;15.25;53.03;99614.84;4976230;28;20078;-86
2023/09/08 07:41:29;;;;;;;10.80;2.63;;;;;;;15.60;51.88;99637.38;4975002;28;20053;-86
2023/09/08 07:43:55;;;;;;;11.45;2.95;;;;;;;15.71;51.24;99629.53;4978335;28;20030;-85
2023/09/08 07:46:25;;;;;;;9.23;1.98;;;;;;;15.66;51.62;99622.28;4953039;28;20070;-87
2023/09/08 07:48:52;;;;;;;10.70;2.13;;;;;;;15.34;51.32;99584.47;4952732;28;20039;-85
2023/09/08 07:51:18;;;;;;;5.75;2.30;;;;;;;15.35;51.32;99561.28;4971428;28;20504;-86
2023/09/08 07:53:54;;;;;;;6.15;2.00;;;;;;;15.55;50.97;99596.25;4962295;28;20046;-90
2023/09/08 07:56:21;;;;;;;6.03;2.10;;;;;;;15.95;51.19;99604.78;4954249;28;20531;-90
2023/09/08 07:58:48;;;;;;;4.50;1.90;;;;;;;15.93;49.92;99567.69;4957806;28;20035;-87
2023/09/08 08:01:16;;;;;;;18.60;2.60;;;;;;;16.19;49.35;99581.13;4973461;28;20054;-83
2023/09/08 08:03:42;;;;;;;7.22;2.40;;;;;;;16.23;49.28;99612.41;4972545;28;20547;-86
2023/09/08 08:06:10;;;;;;;5.80;2.00;;;;;;;16.10;50.18;99597.00;4991609;28;20034;-88
2023/09/08 08:08:40;;;;;;;13.68;1.98;;;;;;;15.95;50.44;99565.38;4980418;28;20046;-86
2023/09/08 08:11:14;;;;;;;14.87;3.10;;;;;;;16.14;49.78;99600.69;4978520;28;20129;-88
2023/09/08 08:13:40;;;;;;;14.63;2.75;;;;;;;15.91;50.11;99554.22;4940984;28;20046;-87
2023/09/08 08:16:08;;;;;;;4.47;2.00;;;;;;;16.01;49.91;99580.53;5003825;28;20030;-92
2023/09/08 08:18:54;;;;;;;8.75;2.65;;;;;;;15.45;49.72;99509.31;4966165;28;20043;-87
2023/09/08 08:21:22;;;;;;;7.80;2.40;;;;;;;16.30;54.36;99565.75;4940908;28;20066;-87
2023/09/08 08:23:49;;;;;;;6.60;1.80;;;;;;;16.61;53.28;99548.56;4990850;28;20038;-83
2023/09/08 08:26:17;;;;;;;10.95;1.88;;;;;;;17.58;49.16;99563.25;4992140;28;20034;-85
2023/09/08 08:28:44;;;;;;;;;;;;;;;18.03;48.32;99559.28;5004363;28;20035;-86
2023/09/08 08:31:17;;;;;;;2.78;1.60;;;;;;;18.34;47.32;99545.78;4966829;28;19958;-82
2023/09/08 08:33:46;;;;;;;8.10;2.30;;;;;;;18.21;44.25;99526.53;4971203;28;20138;-86
2023/09/08 08:36:37;;;;;;;4.78;2.40;;;;;;;17.97;44.89;99551.63;4943539;28;20063;-85
2023/09/08 08:39:05;;;;;;;8.00;1.95;;;;;;;17.50;46.02;99542.09;4997659;28;20114;-88
2023/09/08 08:41:31;;;;;;;;;;;;;;;17.35;48.06;99548.38;4964941;28;20037;-90
2023/09/08 08:43:58;;;;;;;12.40;2.90;;;;;;;17.24;47.72;99548.06;4996379;28;19921;-85
2023/09/08 08:46:29;;;;;;;7.38;2.38;;;;;;;16.95;46.72;99540.94;5006967;28;20053;-87
2023/09/08 08:49:00;;;;;;;5.18;2.20;;;;;;;17.23;50.12;99507.81;4954783;29;20107;-85
2023/09/08 08:51:52;;;;;;;10.75;2.25;;;;;;;17.96;48.96;99539.75;4973739;29;20040;-85
2023/09/08 08:54:29;;;;;;;4.83;1.80;;;;;;;18.17;47.49;99544.19;4973752;28;20027;-85
2023/09/08 08:57:27;;;;;;;7.53;2.00;;;;;;;18.07;46.74;99490.22;4946722;29;20290;-90
2023/09/08 09:00:37;;;;;;;3.72;1.75;;;;;;;18.17;46.70;99535.91;4960844;28;20051;-90
2023/09/08 09:03:45;;;;;;;6.97;2.30;;;;;;;18.36;46.38;99475.09;4895217;29;20070;-91
2023/09/08 09:06:52;;;;;;;22.45;2.53;;;;;;;18.06;44.21;99477.56;5008155;28;20046;-94
2023/09/08 09:12:08;;;;;;;7.45;2.10;;;;;;;18.98;43.77;99497.41;5020799;28;20128;-85
2023/09/08 09:14:34;;;;;;;10.60;2.00;;;;;;;18.59;42.45;99457.78;4990852;28;20053;-85
2023/09/08 09:17:04;;;;;;;13.48;2.75;;;;;;;18.34;44.50;99460.78;4971653;28;20423;-84
2023/09/08 09:19:35;;;;;;;4.55;2.15;;;;;;;18.30;43.60;99488.38;4988730;28;20042;-86
2023/09/08 09:22:03;;;;;;;7.88;2.13;;;;;;;18.61;43.88;99488.66;4974535;28;20034;-86
2023/09/08 09:24:56;;;;;;;16.90;2.53;;;;;;;18.72;45.04;99496.06;4991249;28;20044;-87
2023/09/08 09:27:40;;;;;;;9.02;2.33;;;;;;;18.72;43.68;99476.69;4976120;28;20049;-86
2023/09/08 09:30:54;;;;;;;9.98;2.00;;;;;;;19.13;43.96;99470.75;4999469;28;20086;-86
2023/09/08 09:33:22;;;;;;;14.18;2.17;;;;;;;18.87;43.78;99449.28;4987359;28;20042;-86
2023/09/08 09:35:53;;;;;;;8.20;2.33;;;;;;;18.85;44.51;99476.56;5003496;28;20579;-85
2023/09/08 09:38:20;;;;;;;21.02;2.83;;;;;;;18.33;44.42;99486.88;4999147;28;20461;-85
2023/09/08 09:40:48;;;;;;;16.10;2.90;;;;;;;18.05;46.92;99473.19;5008514;28;20491;-85
2023/09/08 09:43:22;;;;;;;12.15;2.75;;;;;;;17.77;46.16;99485.16;4986281;28;20037;-86
2023/09/08 09:45:48;;;;;;;7.05;2.53;;;;;;;17.40;47.32;99434.81;5002008;28;20050;-86
2023/09/08 09:48:15;;;;;;;10.35;2.40;;;;;;;17.41;47.52;99450.25;4982186;28;20053;-87
2023/09/08 09:51:27;;;;;;;10.25;2.30;;;;;;;17.26;48.05;99484.19;4977579;28;20046;-85
2023/09/08 09:53:55;;;;;;;8.13;2.10;;;;;;;17.16;49.71;99481.94;4981343;28;20137;-87
2023/09/08 09:56:34;;;;;;;17.02;2.60;;;;;;;16.77;49.86;99451.28;4987251;28;20519;-88
2023/09/08 09:59:05;;;;;;;13.18;2.90;;;;;;;16.65;51.08;99469.47;4982671;28;20670;-88
2023/09/08 10:01:32;;;;;;;23.77;2.75;;;;;;;16.64;51.49;99434.72;4991118;28;20038;-90
2023/09/08 10:04:00;;;;;;;17.83;2.60;;;;;;;17.28;53.78;99459.75;5006375;28;20042;-89
2023/09/08 10:06:43;;;;;;;13.82;2.22;;;;;;;17.83;50.36;99489.25;4974195;28;20106;-88
2023/09/08 10:09:22;;;;;;;5.85;2.13;;;;;;;17.38;50.32;99454.53;4947920;28;20047;-88
2023/09/08 10:12:46;;;;;;;10.10;2.53;;;;;;;17.50;53.00;99474.94;4967552;28;20043;-87
2023/09/08 10:15:31;;;;;;;8.52;1.88;;;;;;;16.81;51.26;99427.31;4950808;28;20039;-88
2023/09/08 10:17:59;;;;;;;12.63;2.50;;;;;;;16.42;53.61;99413.16;4951220;28;20043;-88
2023/09/08 10:20:31;;;;;;;4.25;2.08;;;;;;;16.97;55.63;99471.56;4996752;28;20073;-90
2023/09/08 10:23:28;;;;;;;6.47;2.00;;;;;;;16.86;53.64;99488.63;4996580;28;20034;-89
2023/09/08 10:25:59;;;;;;;10.75;2.10;;;;;;;16.90;53.46;99478.47;4993084;28;20030;-90
2023/09/08 10:28:59;;;;;;;5.57;2.50;;;;;;;16.34;53.07;99456.31;4966189;28;20085;-90
2023/09/08 10:31:28;;;;;;;5.43;2.13;;;;;;;16.40;56.16;99457.66;4977662;28;20532;-89
2023/09/08 10:34:03;;;;;;;9.13;2.55;;;;;;;16.35;53.88;99490.22;4987445;23;20050;-90
2023/09/08 10:36:30;;;;;;;9.63;2.40;;;;;;;16.25;54.05;99508.03;4994104;28;20046;-91
2023/09/08 10:39:39;;;;;;;8.57;2.42;;;;;;;15.93;58.37;99509.78;5005795;28;20042;-86
2023/09/08 10:43:03;;;;;;;18.30;3.03;;;;;;;15.58;60.36;99515.66;5011431;28;20046;-91
2023/09/08 10:46:19;;;;;;;8.20;2.58;;;;;;;15.62;61.51;99510.28;5012484;28;20041;-87
2023/09/08 10:49:21;;;;;;;;;;;;;;;15.77;59.63;99511.59;5009503;28;20125;-89
2023/09/08 10:55:47;;;;;;;5.15;2.00;;;;;;;15.73;57.54;99514.25;4941612;29;20534;-87
2023/09/08 10:58:35;;;;;;;5.25;2.50;;;;;;;15.64;57.65;99469.41;4963397;29;20102;-86
2023/09/08 11:01:07;;;;;;;5.75;2.13;;;;;;;15.80;57.12;99486.91;4926120;29;20055;-84
2023/09/08 11:03:41;;;;;;;3.85;2.20;;;;;;;15.86;57.27;99515.88;4946157;29;20149;-87
2023/09/08 11:07:00;;;;;;;9.13;2.50;;;;;;;16.26;56.17;99514.34;4952576;29;20055;-89
2023/09/08 11:09:45;;;;;;;6.72;3.90;;;;;;;16.38;55.67;99472.97;4870038;29;20049;-89
2023/09/08 11:18:52;;;;;;;7.60;2.60;;;;;;;15.84;57.15;99438.22;4867519;29;20045;-90
2023/09/08 11:22:15;;;;;;;10.57;5.45;;;;;;;16.07;60.01;99503.91;4854735;29;20057;-89
2023/09/08 11:24:43;;;;;;;16.77;3.60;;;;;;;15.61;61.40;99503.97;4853804;29;20049;-90
2023/09/08 11:27:42;;;;;;;7.72;2.38;;;;;;;14.87;63.46;99491.13;4885659;29;20076;-89
2023/09/08 11:30:09;;;;;;;18.50;2.50;;;;;;;14.63;64.12;99491.78;4809862;29;20123;-90
2023/09/08 11:32:42;;;;;;;8.60;1.90;;;;;;;14.62;64.38;99521.25;4854383;29;20062;-89
2023/09/08 11:35:11;;;;;;;21.30;3.08;;;;;;;14.28;63.48;99519.50;4867147;29;20053;-88
2023/09/08 11:37:39;;;;;;;;;;;;;;;14.06;64.46;99535.13;4848507;29;20098;-91
2023/09/08 11:40:13;;;;;;;10.90;1.90;;;;;;;13.93;65.07;99538.09;4850513;29;19924;-90
2023/09/08 11:43:04;;;;;;;7.60;1.70;;;;;;;13.58;64.87;99497.03;4832045;29;20083;-94
2023/09/08 11:45:34;;;;;;;13.32;1.90;;;;;;;13.85;67.13;99537.81;4821212;29;20123;-93
2023/09/08 11:48:05;;;;;;;9.15;2.17;;;;;;;13.43;66.53;99495.63;4875035;29;20067;-91
2023/09/08 11:50:32;;;;;;;9.10;2.63;;;;;;;13.23;67.16;99477.06;4858662;29;20051;-90
2023/09/08 11:53:02;;;;;;;7.30;3.03;;;;;;;13.60;68.18;99533.22;4857602;29;20048;-90
2023/09/08 11:55:41;;;;;;;19.08;2.80;;;;;;;13.40;68.88;99510.81;4890937;29;20097;-93
2023/09/08 11:58:07;;;;;;;7.05;2.33;;;;;;;13.35;68.30;99458.03;4857544;29;20057;-92
2023/09/08 12:00:47;;;;;;;7.13;2.28;;;;;;;13.63;66.78;99491.34;4861285;29;20117;-93
2023/09/08 12:03:16;;;;;;;8.48;2.47;;;;;;;13.56;67.55;99485.56;4877244;29;20055;-90
2023/09/08 12:09:21;;;;;;;17.55;3.63;;;;;;;13.88;66.78;99497.88;4854508;29;20049;-91
2023/09/08 12:12:15;;;;;;;7.70;3.55;;;;;;;14.49;66.02;99519.53;4855266;29;20053;-87
2023/09/08 12:17:49;;;;;;;15.73;2.40;;;;;;;14.65;62.88;99520.59;4840246;29;20095;-91
2023/09/08 12:20:16;;;;;;;8.70;2.25;;;;;;;14.75;62.19;99525.69;4857835;29;20553;-87
2023/09/08 12:22:58;;;;;;;;;;;;;;;14.98;60.91;99519.84;4975878;28;20704;-91
2023/09/08 12:25:24;;;;;;;10.55;2.70;;;;;;;15.16;60.65;99525.97;5008764;28;20310;-86
2023/09/08 12:27:51;;;;;;;5.67;2.13;;;;;;;15.16;58.34;99526.78;5025175;28;20080;-89
2023/09/08 12:30:32;;;;;;;5.35;2.10;;;;;;;15.01;56.06;99502.66;5002167;28;20045;-93
2023/09/08 12:33:01;;;;;;;10.82;2.00;;;;;;;14.83;57.12;99476.41;4989717;28;20063;-92
2023/09/08 12:35:29;;;;;;;25.75;2.67;;;;;;;15.12;56.63;99501.06;5014271;28;20491;-88
2023/09/08 12:38:08;;;;;;;;;;;;;;;15.31;55.86;99524.56;5021528;28;20057;-84
2023/09/08 12:40:44;;;;;;;5.72;1.95;;;;;;;15.39;55.33;99521.69;5012040;28;20016;-90
2023/09/08 12:43:35;;;;;;;15.95;1.98;;;;;;;15.65;55.12;99557.25;4982368;28;20045;-88
2023/09/08 12:46:09;;;;;;;14.70;2.42;;;;;;;15.75;54.71;99517.44;4998459;28;20089;-88
2023/09/08 12:48:38;;;;;;;13.23;2.00;;;;;;;15.85;53.50;99521.72;5011931;28;20010;-88
2023/09/08 12:51:05;;;;;;;7.03;2.00;;;;;;;15.74;53.00;99504.81;4965742;28;20073;-91
2023/09/08 12:53:35;;;;;;;9.68;2.22;;;;;;;15.86;53.77;99532.41;4997398;28;20042;-89
2023/09/08 12:56:10;;;;;;;30.77;2.42;;;;;;;15.75;52.38;99558.78;4990779;28;20054;-85
2023/09/08 12:58:36;;;;;;;17.95;2.13;;;;;;;15.57;52.41;99516.81;4999840;28;20631;-90
2023/09/08 13:01:06;;;;;;;8.52;1.92;;;;;;;15.56;53.59;99514.38;4984120;28;20074;-90
2023/09/08 13:03:34;;;;;;;13.38;2.20;;;;;;;15.60;52.00;99524.41;4980313;28;20093;-85
2023/09/08 13:06:00;;;;;;;17.63;2.13;;;;;;;15.59;51.64;99522.78;5002482;28;20109;-84